createdAt,value
2019-04-22T00:01:43.603Z,14.00
2019-04-22T00:04:17.796Z,14.00
2019-04-22T00:07:03.304Z,14.00
2019-04-22T00:09:38.841Z,14.00
2019-04-22T00:12:16.470Z,14.00
2019-04-22T00:14:34.642Z,14.00
2019-04-22T00:17:20.348Z,13.90
2019-04-22T00:19:43.852Z,13.90
2019-04-22T00:22:18.541Z,13.90
2019-04-22T00:24:39.043Z,13.90
2019-04-22T00:27:18.344Z,13.90
2019-04-22T00:32:33.743Z,13.80
2019-04-22T00:35:01.941Z,13.80
2019-04-22T00:37:34.686Z,13.80
2019-04-22T00:40:12.941Z,13.80
2019-04-22T00:42:36.313Z,13.70
2019-04-22T00:45:07.900Z,13.70
2019-04-22T00:47:38.044Z,13.70
2019-04-22T00:52:35.806Z,13.70
2019-04-22T01:00:06.662Z,13.60
2019-04-22T01:02:46.078Z,13.60
2019-04-22T01:05:07.744Z,13.50
2019-04-22T01:07:58.996Z,13.50
2019-04-22T01:10:33.862Z,13.50
2019-04-22T01:12:59.260Z,13.50
2019-04-22T01:15:35.478Z,13.50
2019-04-22T01:18:21.091Z,13.50
2019-04-22T01:23:19.752Z,13.50
2019-04-22T01:25:46.413Z,13.50
2019-04-22T01:28:12.614Z,13.50
2019-04-22T01:30:38.418Z,13.50
2019-04-22T01:33:08.336Z,13.50
2019-04-22T01:35:38.604Z,13.50
2019-04-22T01:38:13.391Z,13.50
2019-04-22T01:40:59.781Z,13.50
2019-04-22T01:43:30.004Z,13.50
2019-04-22T01:45:56.185Z,13.40
2019-04-22T01:48:26.400Z,13.40
2019-04-22T01:50:54.956Z,13.40
2019-04-22T01:53:27.536Z,13.40
2019-04-22T01:55:59.053Z,13.30
2019-04-22T01:58:23.669Z,13.30
2019-04-22T02:01:14.706Z,13.30
2019-04-22T02:03:33.316Z,13.30
2019-04-22T02:06:02.445Z,13.30
2019-04-22T02:08:37.881Z,13.20
2019-04-22T02:11:01.012Z,13.20
2019-04-22T02:13:38.188Z,13.20
2019-04-22T02:16:21.224Z,13.20
2019-04-22T02:18:39.404Z,13.20
2019-04-22T02:21:01.523Z,13.10
2019-04-22T02:34:09.636Z,13.00
2019-04-22T02:41:28.875Z,12.90
2019-04-22T02:43:51.861Z,12.80
2019-04-22T02:56:27.475Z,12.70
2019-04-22T02:59:00.101Z,12.70
2019-04-22T03:01:24.816Z,12.70
2019-04-22T03:12:00.885Z,12.50
2019-04-22T03:16:40.307Z,12.50
2019-04-22T03:19:13.881Z,12.50
2019-04-22T03:29:04.760Z,12.40
2019-04-22T03:37:21.351Z,12.30
2019-04-22T03:39:46.246Z,12.30
2019-04-22T03:42:06.416Z,12.30
2019-04-22T03:49:32.245Z,12.20
2019-04-22T03:52:10.907Z,12.20
2019-04-22T03:57:24.986Z,12.20
2019-04-22T04:02:02.066Z,12.10
2019-04-22T04:07:38.362Z,12.10
2019-04-22T04:12:23.568Z,12.00
2019-04-22T04:15:16.178Z,12.00
2019-04-22T04:25:08.387Z,11.90
2019-04-22T04:27:50.833Z,11.80
2019-04-22T04:30:05.182Z,11.80
2019-04-22T04:32:34.325Z,11.80
2019-04-22T04:37:40.710Z,11.80
2019-04-22T04:40:07.466Z,11.80
2019-04-22T04:50:20.607Z,11.70
2019-04-22T04:58:04.370Z,11.70
2019-04-22T05:02:46.530Z,11.70
2019-04-22T05:05:16.796Z,11.70
2019-04-22T05:07:56.430Z,11.70
2019-04-22T05:15:57.640Z,11.70
2019-04-22T05:17:52.445Z,11.70
2019-04-22T05:20:33.719Z,11.80
2019-04-22T05:22:43.071Z,11.80
2019-04-22T05:25:12.998Z,11.80
2019-04-22T05:27:40.047Z,11.90
2019-04-22T05:37:45.715Z,12.00
2019-04-22T05:40:18.666Z,12.10
2019-04-22T05:42:34.511Z,12.10
2019-04-22T05:47:38.980Z,12.30
2019-04-22T05:50:10.896Z,12.40
2019-04-22T05:52:46.880Z,12.50
2019-04-22T05:57:45.727Z,12.70
2019-04-22T06:00:25.677Z,12.80
2019-04-22T06:02:53.624Z,12.90
2019-04-22T06:05:22.349Z,13.00
2019-04-22T06:07:45.641Z,13.10
2019-04-22T06:12:43.228Z,13.30
2019-04-22T06:15:18.324Z,13.40
2019-04-22T06:17:55.126Z,13.50
2019-04-22T06:20:25.604Z,13.60
2019-04-22T06:25:27.784Z,13.70
2019-04-22T06:27:54.197Z,13.70
2019-04-22T06:30:20.657Z,13.80
2019-04-22T06:32:59.204Z,13.90
2019-04-22T06:35:31.140Z,14.00
2019-04-22T06:38:22.790Z,14.10
2019-04-22T06:40:27.515Z,14.20
2019-04-22T06:42:58.580Z,14.30
2019-04-22T06:45:26.374Z,14.30
2019-04-22T06:48:13.113Z,14.40
2019-04-22T06:50:33.925Z,14.50
2019-04-22T06:53:00.069Z,14.60
2019-04-22T06:55:29.824Z,14.70
2019-04-22T06:58:00.364Z,14.80
2019-04-22T07:00:29.377Z,14.80
2019-04-22T07:03:18.987Z,14.90
2019-04-22T07:05:28.045Z,15.00
2019-04-22T07:08:04.142Z,15.00
2019-04-22T07:12:58.422Z,15.30
2019-04-22T07:15:42.411Z,15.30
2019-04-22T07:18:04.288Z,15.40
2019-04-22T07:20:34.915Z,15.50
2019-04-22T07:23:03.405Z,15.50
2019-04-22T07:25:32.753Z,15.70
2019-04-22T07:28:01.469Z,15.90
2019-04-22T07:35:36.217Z,16.30
2019-04-22T07:38:04.682Z,16.50
2019-04-22T07:40:34.099Z,16.50
2019-04-22T07:43:09.063Z,16.60
2019-04-22T07:45:39.136Z,16.60
2019-04-22T07:48:09.630Z,16.60
2019-04-22T07:50:49.413Z,16.70
2019-04-22T07:53:05.400Z,16.70
2019-04-22T07:55:32.718Z,16.80
2019-04-22T07:58:05.440Z,17.00
2019-04-22T08:00:34.219Z,17.10
2019-04-22T08:05:45.978Z,17.40
2019-04-22T08:08:13.119Z,17.60
2019-04-22T08:13:05.659Z,17.90
2019-04-22T08:15:41.041Z,17.90
2019-04-22T08:18:14.101Z,17.80
2019-04-22T08:20:45.537Z,17.90
2019-04-22T08:23:08.772Z,17.90
2019-04-22T08:25:38.831Z,18.00
2019-04-22T08:28:11.819Z,18.20
2019-04-22T08:30:44.005Z,18.30
2019-04-22T08:33:15.974Z,18.30
2019-04-22T08:38:11.892Z,18.40
2019-04-22T08:40:48.746Z,18.40
2019-04-22T08:43:22.229Z,18.60
2019-04-22T08:48:15.097Z,18.60
2019-04-22T08:50:44.604Z,18.50
2019-04-22T08:53:28.631Z,18.60
2019-04-22T08:55:57.955Z,18.70
2019-04-22T09:00:57.175Z,19.00
2019-04-22T09:03:16.206Z,19.20
2019-04-22T09:08:19.076Z,19.30
2019-04-22T09:10:55.275Z,19.40
2019-04-22T09:13:31.858Z,19.60
2019-04-22T09:15:49.110Z,19.80
2019-04-22T09:18:21.653Z,19.90
2019-04-22T09:21:04.193Z,20.20
2019-04-22T09:23:30.226Z,20.20
2019-04-22T09:25:53.180Z,20.20
2019-04-22T09:28:26.030Z,20.30
2019-04-22T09:31:02.084Z,20.40
2019-04-22T09:33:28.993Z,20.50
2019-04-22T09:36:00.444Z,20.70
2019-04-22T09:41:00.716Z,20.90
2019-04-22T09:43:33.604Z,21.10
2019-04-22T09:45:57.415Z,21.10
2019-04-22T09:50:58.918Z,21.30
2019-04-22T09:53:32.192Z,21.40
2019-04-22T09:56:27.368Z,21.60
2019-04-22T09:58:52.367Z,21.80
2019-04-22T10:01:30.721Z,21.80
2019-04-22T10:03:56.363Z,21.90
2019-04-22T10:06:30.269Z,22.00
2019-04-22T10:09:12.701Z,22.10
2019-04-22T10:16:35.422Z,22.20
2019-04-22T10:19:00.941Z,22.30
2019-04-22T10:21:35.556Z,22.40
2019-04-22T10:23:50.612Z,22.40
2019-04-22T10:26:31.727Z,22.50
2019-04-22T10:29:01.721Z,22.50
2019-04-22T10:31:32.887Z,22.50
2019-04-22T10:33:50.035Z,22.70
2019-04-22T10:36:03.653Z,22.70
2019-04-22T10:38:32.586Z,22.60
2019-04-22T10:41:02.639Z,22.70
2019-04-22T10:43:32.820Z,22.70
2019-04-22T10:46:02.086Z,22.80
2019-04-22T10:48:32.320Z,23.00
2019-04-22T10:51:01.233Z,23.10
2019-04-22T10:53:31.140Z,23.20
2019-04-22T10:56:00.983Z,23.40
2019-04-22T10:58:30.796Z,23.40
2019-04-22T11:01:00.174Z,23.40
2019-04-22T11:03:29.215Z,23.50
2019-04-22T11:05:59.302Z,23.70
2019-04-22T11:08:37.996Z,23.70
2019-04-22T11:11:30.173Z,23.70
2019-04-22T11:13:49.523Z,23.70
2019-04-22T11:16:19.346Z,23.60
2019-04-22T11:18:49.499Z,23.70
2019-04-22T11:21:19.804Z,23.80
2019-04-22T11:23:48.649Z,23.90
2019-04-22T11:26:17.712Z,24.00
2019-04-22T11:28:47.617Z,24.10
2019-04-22T11:31:16.670Z,24.20
2019-04-22T11:33:45.276Z,24.40
2019-04-22T11:36:13.917Z,24.60
2019-04-22T11:38:48.690Z,24.50
2019-04-22T11:41:12.811Z,24.60
2019-04-22T11:43:42.975Z,24.50
2019-04-22T11:46:13.343Z,24.60
2019-04-22T11:48:42.436Z,24.70
2019-04-22T11:51:11.648Z,24.70
2019-04-22T11:53:40.916Z,24.80
2019-04-22T11:56:10.990Z,24.80
2019-04-22T11:58:39.866Z,24.70
2019-04-22T12:01:08.697Z,24.70
2019-04-22T12:03:49.802Z,24.80
2019-04-22T12:06:19.760Z,24.90
2019-04-22T12:08:49.916Z,24.80
2019-04-22T12:11:20.555Z,24.80
2019-04-22T12:14:09.756Z,24.80
2019-04-22T12:16:39.358Z,24.80
2019-04-22T12:19:09.212Z,24.90
2019-04-22T12:21:39.354Z,25.00
2019-04-22T12:24:09.112Z,25.20
2019-04-22T12:26:38.139Z,25.10
2019-04-22T12:29:07.129Z,25.00
2019-04-22T12:31:35.838Z,25.00
2019-04-22T12:34:05.980Z,25.10
2019-04-22T12:36:36.130Z,25.00
2019-04-22T12:39:07.598Z,25.00
2019-04-22T12:41:36.269Z,25.10
2019-04-22T12:44:05.281Z,25.20
2019-04-22T12:46:34.240Z,25.30
2019-04-22T12:49:04.432Z,25.30
2019-04-22T12:51:33.339Z,25.40
2019-04-22T12:54:03.399Z,25.30
2019-04-22T12:56:33.387Z,25.30
2019-04-22T12:59:03.682Z,25.30
2019-04-22T13:01:33.121Z,25.20
2019-04-22T13:04:07.359Z,25.20
2019-04-22T13:06:32.372Z,25.30
2019-04-22T13:09:02.181Z,25.40
2019-04-22T13:11:34.843Z,25.50
2019-04-22T13:14:01.313Z,25.70
2019-04-22T13:16:31.345Z,25.50
2019-04-22T13:19:05.158Z,25.40
2019-04-22T13:21:31.097Z,25.40
2019-04-22T13:23:59.920Z,25.40
2019-04-22T13:26:29.750Z,25.40
2019-04-22T13:28:59.069Z,25.50
2019-04-22T13:31:30.883Z,25.60
2019-04-22T13:34:03.559Z,25.40
2019-04-22T13:36:31.710Z,25.40
2019-04-22T13:39:03.032Z,25.40
2019-04-22T13:41:40.001Z,25.40
2019-04-22T13:44:02.084Z,25.30
2019-04-22T13:46:32.144Z,25.20
2019-04-22T13:49:34.019Z,25.30
2019-04-22T13:56:51.871Z,25.30
2019-04-22T13:59:10.226Z,25.30
2019-04-22T14:01:52.651Z,25.40
2019-04-22T14:04:28.633Z,25.60
2019-04-22T14:06:58.647Z,25.60
2019-04-22T14:09:28.362Z,25.70
2019-04-22T14:12:02.986Z,25.70
2019-04-22T14:14:28.129Z,26.00
2019-04-22T14:16:56.923Z,25.90
2019-04-22T14:19:26.028Z,25.70
2019-04-22T14:21:55.646Z,25.60
2019-04-22T14:24:25.790Z,25.60
2019-04-22T14:27:08.773Z,25.70
2019-04-22T14:29:26.017Z,25.70
2019-04-22T14:32:06.709Z,25.70
2019-04-22T14:34:26.588Z,25.80
2019-04-22T14:36:55.468Z,25.80
2019-04-22T14:39:24.143Z,25.80
2019-04-22T14:42:12.345Z,25.60
2019-04-22T14:45:15.487Z,25.60
2019-04-22T14:49:47.463Z,25.20
2019-04-22T14:52:15.039Z,25.00
2019-04-22T14:54:37.719Z,25.00
2019-04-22T14:56:56.255Z,24.90
2019-04-22T14:59:25.143Z,24.80
2019-04-22T15:01:54.126Z,24.70
2019-04-22T15:04:23.458Z,24.70
2019-04-22T15:06:52.753Z,24.90
2019-04-22T15:09:21.820Z,25.00
2019-04-22T15:12:04.952Z,25.10
2019-04-22T15:14:21.506Z,25.20
2019-04-22T15:17:22.899Z,25.40
2019-04-22T15:20:16.902Z,25.50
2019-04-22T15:22:46.473Z,25.60
2019-04-22T15:25:16.616Z,25.60
2019-04-22T15:27:45.932Z,25.60
2019-04-22T15:30:15.164Z,25.70
2019-04-22T15:32:45.230Z,25.80
2019-04-22T15:35:15.536Z,25.80
2019-04-22T15:37:45.580Z,25.90
2019-04-22T15:40:14.360Z,26.10
2019-04-22T15:42:43.763Z,26.00
2019-04-22T15:45:14.952Z,26.00
2019-04-22T15:47:44.110Z,26.00
2019-04-22T15:50:14.101Z,25.90
2019-04-22T15:52:49.451Z,26.00
2019-04-22T15:55:14.419Z,26.10
2019-04-22T15:57:43.977Z,26.10
2019-04-22T16:00:25.120Z,26.30
2019-04-22T16:02:43.739Z,26.40
2019-04-22T16:05:13.010Z,26.30
2019-04-22T16:07:42.248Z,26.40
2019-04-22T16:10:12.247Z,26.50
2019-04-22T16:12:52.364Z,26.50
2019-04-22T16:15:13.191Z,26.40
2019-04-22T16:17:42.492Z,26.30
2019-04-22T16:20:11.284Z,26.40
2019-04-22T16:22:59.291Z,26.20
2019-04-22T16:25:47.185Z,26.20
2019-04-22T16:28:17.313Z,26.30
2019-04-22T16:30:46.153Z,26.20
2019-04-22T16:33:15.158Z,26.20
2019-04-22T16:35:44.956Z,26.30
2019-04-22T16:38:14.929Z,26.60
2019-04-22T16:40:45.000Z,26.60
2019-04-22T16:43:16.585Z,26.20
2019-04-22T16:45:45.562Z,26.00
2019-04-22T16:48:15.686Z,26.00
2019-04-22T16:50:46.646Z,26.00
2019-04-22T16:53:15.059Z,26.00
2019-04-22T16:55:44.680Z,25.90
2019-04-22T16:58:14.747Z,25.70
2019-04-22T17:00:44.876Z,25.60
2019-04-22T17:03:36.579Z,25.40
2019-04-22T17:06:23.430Z,25.20
2019-04-22T17:08:52.896Z,25.10
2019-04-22T17:11:22.165Z,25.10
2019-04-22T17:13:50.820Z,24.90
2019-04-22T17:16:20.185Z,24.70
2019-04-22T17:18:50.063Z,24.60
2019-04-22T17:21:19.597Z,24.40
2019-04-22T17:23:49.694Z,24.40
2019-04-22T17:26:18.828Z,24.20
2019-04-22T17:28:49.234Z,24.10
2019-04-22T17:31:18.631Z,23.90
2019-04-22T17:33:48.731Z,23.90
2019-04-22T17:36:18.339Z,23.80
2019-04-22T17:38:55.065Z,23.80
2019-04-22T17:41:28.284Z,23.70
2019-04-22T17:44:12.454Z,23.60
2019-04-22T17:46:48.229Z,23.50
2019-04-22T17:49:31.561Z,23.40
2019-04-22T17:52:18.960Z,23.30
2019-04-22T17:54:48.181Z,23.20
2019-04-22T17:57:17.499Z,23.10
2019-04-22T17:59:46.646Z,23.00
2019-04-22T18:02:21.284Z,22.90
2019-04-22T18:04:33.701Z,22.80
2019-04-22T18:07:23.427Z,22.80
2019-04-22T18:12:25.754Z,22.70
2019-04-22T18:14:54.792Z,22.60
2019-04-22T18:17:23.761Z,22.50
2019-04-22T18:19:49.211Z,22.40
2019-04-22T18:22:16.407Z,22.30
2019-04-22T18:24:46.312Z,22.20
2019-04-22T18:27:34.271Z,22.20
2019-04-22T18:29:48.454Z,22.10
2019-04-22T18:32:16.531Z,22.00
2019-04-22T18:34:44.319Z,21.80
2019-04-22T18:37:18.431Z,21.80
2019-04-22T18:39:58.395Z,21.70
2019-04-22T18:42:21.761Z,21.60
2019-04-22T18:45:06.485Z,21.60
2019-04-22T18:47:18.786Z,21.50
2019-04-22T18:49:49.361Z,21.40
2019-04-22T18:52:59.234Z,21.40
2019-04-22T18:55:29.837Z,21.30
2019-04-22T18:58:04.179Z,21.20
2019-04-22T19:00:25.416Z,21.10
2019-04-22T19:03:01.930Z,21.10
2019-04-22T19:05:42.689Z,21.00
2019-04-22T19:11:08.313Z,20.90
2019-04-22T19:16:19.303Z,20.80
2019-04-22T19:18:29.952Z,20.70
2019-04-22T19:20:57.717Z,20.70
2019-04-22T19:23:26.009Z,20.60
2019-04-22T19:25:50.009Z,20.60
2019-04-22T19:28:29.090Z,20.50
2019-04-22T19:31:16.917Z,20.40
2019-04-22T19:33:40.331Z,20.40
2019-04-22T19:36:36.379Z,20.40
2019-04-22T19:38:59.194Z,20.30
2019-04-22T19:41:36.786Z,20.20
2019-04-22T19:44:05.577Z,20.10
2019-04-22T19:46:28.591Z,20.10
2019-04-22T19:49:10.278Z,20.00
2019-04-22T19:51:47.215Z,20.00
2019-04-22T19:54:00.776Z,19.90
2019-04-22T19:56:29.585Z,19.90
2019-04-22T19:59:03.630Z,19.80
2019-04-22T20:02:04.813Z,19.80
2019-04-22T20:04:47.979Z,19.70
2019-04-22T20:07:12.757Z,19.60
2019-04-22T20:09:49.317Z,19.60
2019-04-22T20:12:18.825Z,19.50
2019-04-22T20:14:48.021Z,19.50
2019-04-22T20:17:18.685Z,19.40
2019-04-22T20:19:51.207Z,19.40
2019-04-22T20:22:32.799Z,19.40
2019-04-22T20:24:55.378Z,19.40
2019-04-22T20:27:36.390Z,19.30
2019-04-22T20:30:04.677Z,19.20
2019-04-22T20:32:40.295Z,19.20
2019-04-22T20:35:07.453Z,19.20
2019-04-22T20:37:49.737Z,19.10
2019-04-22T20:40:10.575Z,19.00
2019-04-22T20:45:11.827Z,19.00
2019-04-22T20:47:34.540Z,18.90
2019-04-22T20:50:14.334Z,18.90
2019-04-22T20:52:52.821Z,18.90
2019-04-22T20:55:12.508Z,18.80
2019-04-22T20:57:49.763Z,18.90
2019-04-22T21:00:06.105Z,18.80
2019-04-22T21:02:32.417Z,18.80
2019-04-22T21:05:01.925Z,18.70
2019-04-22T21:07:37.073Z,18.70
2019-04-22T21:10:09.233Z,18.60
2019-04-22T21:12:36.359Z,18.50
2019-04-22T21:15:23.895Z,18.50
2019-04-22T21:17:44.778Z,18.40
2019-04-22T21:20:17.277Z,18.40
2019-04-22T21:22:54.965Z,18.40
2019-04-22T21:25:08.900Z,18.30
2019-04-22T21:27:50.467Z,18.30
2019-04-22T21:30:37.759Z,18.30
2019-04-22T21:33:03.986Z,18.10
2019-04-22T21:35:57.968Z,18.10
2019-04-22T21:38:11.289Z,18.00
2019-04-22T21:40:39.774Z,18.00
2019-04-22T21:43:12.642Z,17.90
2019-04-22T21:45:35.089Z,17.90
2019-04-22T21:48:20.650Z,17.80
2019-04-22T21:50:59.560Z,17.80
2019-04-22T21:53:14.564Z,17.80
2019-04-22T21:55:43.492Z,17.70
2019-04-22T21:58:18.048Z,17.60
2019-04-22T22:01:14.504Z,17.60
2019-04-22T22:03:38.895Z,17.50
2019-04-22T22:06:04.452Z,17.40
2019-04-22T22:08:41.213Z,17.40
2019-04-22T22:11:09.545Z,17.40
2019-04-22T22:13:39.225Z,17.30
2019-04-22T22:16:23.343Z,17.30
2019-04-22T22:19:02.257Z,17.20
2019-04-22T22:21:41.512Z,17.20
2019-04-22T22:24:05.397Z,17.10
2019-04-22T22:26:35.127Z,17.10
2019-04-22T22:29:05.059Z,17.00
2019-04-22T22:31:36.648Z,17.00
2019-04-22T22:34:04.132Z,16.90
2019-04-22T22:36:23.708Z,16.90
2019-04-22T22:38:58.476Z,16.80
2019-04-22T22:41:12.308Z,16.80
2019-04-22T22:43:47.500Z,16.70
2019-04-22T22:46:26.957Z,16.70
2019-04-22T22:49:05.086Z,16.60
2019-04-22T22:51:40.346Z,16.60
2019-04-22T22:54:09.754Z,16.60
2019-04-22T22:56:42.340Z,16.50
2019-04-22T22:59:03.485Z,16.40
2019-04-22T23:01:39.770Z,16.30
2019-04-22T23:04:12.783Z,16.30
2019-04-22T23:06:39.059Z,16.30
2019-04-22T23:09:09.982Z,16.30
2019-04-22T23:11:52.244Z,16.20
2019-04-22T23:14:06.950Z,16.20
2019-04-22T23:16:28.160Z,16.20
2019-04-22T23:19:04.465Z,16.10
2019-04-22T23:21:39.705Z,16.10
2019-04-22T23:24:23.580Z,16.00
2019-04-22T23:27:00.254Z,16.00
2019-04-22T23:29:43.599Z,15.90
2019-04-22T23:32:18.206Z,15.90
2019-04-22T23:34:55.964Z,15.90
2019-04-22T23:37:29.329Z,15.90
2019-04-22T23:40:09.968Z,15.80
2019-04-22T23:42:33.795Z,15.80
2019-04-22T23:45:12.578Z,15.70
2019-04-22T23:47:30.987Z,15.60
2019-04-22T23:50:09.137Z,15.60
2019-04-22T23:52:45.377Z,15.50
2019-04-22T23:55:18.692Z,15.50
2019-04-22T23:57:46.930Z,15.40
